Time;durP1;ratioP1;P1;durP2;ratioP2;P2;SDS_P1;SDS_P2;PMS_P1;PMS_P2;Temp;Humidity;BMP_temperature;BMP_pressure;BME280_temperature;BME280_humidity;BME280_pressure;Samples;Min_cycle;Max_cycle;Signal;HPM_P1;HPM_P2
2022/12/05 00:00:59;;;;;;;;;;;;;;;;;;5073567;28;20380;-56
2022/12/05 00:03:24;;;;;;;;;;;;;;;;;;5088634;28;19920;-54
2022/12/05 00:05:49;;;;;;;;;;;;;;;;;;5076182;28;19965;-55
2022/12/05 00:08:14;;;;;;;;;;;;;;;;;;5071329;28;19962;-53
2022/12/05 00:10:39;;;;;;;;;;;;;;;;;;5087413;28;19915;-53
2022/12/05 00:13:04;;;;;;;;;;;;;;;;;;5073244;28;20308;-53
2022/12/05 00:15:30;;;;;;;;;;;;;;;;;;5070021;28;20015;-55
2022/12/05 00:17:55;;;;;;;;;;;;;;;;;;5068961;28;19917;-56
2022/12/05 00:20:20;;;;;;;;;;;;;;;;;;5072404;28;19909;-56
2022/12/05 00:22:45;;;;;;;;;;;;;;;;;;5071918;28;19913;-54
2022/12/05 00:25:10;;;;;;;;;;;;;;;;;;5102193;28;19920;-56
2022/12/05 00:27:35;;;;;;;;;;;;;;;;;;5069868;28;19916;-55
2022/12/05 00:30:01;;;;;;;;;;;;;;;;;;5071636;28;19913;-54
2022/12/05 00:32:26;;;;;;;;;;;;;;;;;;5064154;28;19913;-57
2022/12/05 00:34:51;;;;;;;;;;;;;;;;;;5052606;28;20338;-56
2022/12/05 00:37:16;;;;;;;;;;;;;;;;;;5065212;28;19918;-57
2022/12/05 00:39:41;;;;;;;;;;;;;;;;;;5066463;28;19913;-56
2022/12/05 00:42:06;;;;;;;;;;;;;;;;;;5092008;28;19912;-54
2022/12/05 00:44:31;;;;;;;;;;;;;;;;;;5070353;28;19913;-54
2022/12/05 00:46:56;;;;;;;;;;;;;;;;;;5070157;28;19920;-55
2022/12/05 00:49:22;;;;;;;;;;;;;;;;;;5104622;28;19919;-56
2022/12/05 00:51:47;;;;;;;;;;;;;;;;;;5071398;28;19912;-55
2022/12/05 00:54:12;;;;;;;;;;;;;;;;;;5087306;28;19991;-52
2022/12/05 00:56:37;;;;;;;;;;;;;;;;;;5072252;28;20407;-56
2022/12/05 00:59:02;;;;;;;;;;;;;;;;;;5068581;28;19920;-56
2022/12/05 01:01:27;;;;;;;;;;;;;;;;;;5057822;28;20015;-56
2022/12/05 01:03:52;;;;;;;;;;;;;;;;;;5052014;28;19971;-57
2022/12/05 01:06:18;;;;;;;;;;;;;;;;;;5066728;28;19916;-51
2022/12/05 01:08:43;;;;;;;;;;;;;;;;;;5067496;28;19917;-53
2022/12/05 01:11:08;;;;;;;;;;;;;;;;;;5071153;28;19912;-55
2022/12/05 01:13:33;;;;;;;;;;;;;;;;;;5069524;28;19912;-56
2022/12/05 01:15:58;;;;;;;;;;;;;;;;;;5070479;28;19959;-55
2022/12/05 01:18:23;;;;;;;;;;;;;;;;;;5069996;28;19909;-55
2022/12/05 01:20:48;;;;;;;;;;;;;;;;;;5070917;28;19912;-56
2022/12/05 01:23:14;;;;;;;;;;;;;;;;;;5070681;28;19908;-54
2022/12/05 01:25:39;;;;;;;;;;;;;;;;;;5074802;28;19920;-51
2022/12/05 01:28:04;;;;;;;;;;;;;;;;;;5107146;28;20261;-54
2022/12/05 01:30:29;;;;;;;;;;;;;;;;;;5067067;28;20000;-52
2022/12/05 01:32:54;;;;;;;;;;;;;;;;;;5073683;28;19916;-53
2022/12/05 01:35:19;;;;;;;;;;;;;;;;;;5075315;28;20280;-55
2022/12/05 01:37:44;;;;;;;;;;;;;;;;;;5073076;28;19920;-55
2022/12/05 01:40:09;;;;;;;;;;;;;;;;;;5073662;28;19939;-57
2022/12/05 01:42:35;;;;;;;;;;;;;;;;;;5073254;28;19938;-55
2022/12/05 01:45:00;;;;;;;;;;;;;;;;;;5074971;28;20387;-56
2022/12/05 01:47:25;;;;;;;;;;;;;;;;;;5074295;28;20024;-56
2022/12/05 01:49:50;;;;;;;;;;;;;;;;;;5073302;28;19909;-52
2022/12/05 01:52:15;;;;;;;;;;;;;;;;;;5104987;27;20001;-54
2022/12/05 01:54:40;;;;;;;;;;;;;;;;;;5074680;28;19962;-56
2022/12/05 01:57:05;;;;;;;;;;;;;;;;;;5074860;28;20010;-55
2022/12/05 01:59:31;;;;;;;;;;;;;;;;;;5066466;28;19913;-53
2022/12/05 02:01:56;;;;;;;;;;;;;;;;;;5069899;28;19947;-56
2022/12/05 02:04:21;;;;;;;;;;;;;;;;;;5074299;28;19952;-54
2022/12/05 02:06:46;;;;;;;;;;;;;;;;;;5073548;28;19924;-54
2022/12/05 02:09:11;;;;;;;;;;;;;;;;;;5083235;28;19912;-56
2022/12/05 02:11:36;;;;;;;;;;;;;;;;;;5079217;28;20015;-56
2022/12/05 02:14:01;;;;;;;;;;;;;;;;;;5071450;28;20369;-54
2022/12/05 02:16:26;;;;;;;;;;;;;;;;;;5073472;28;19909;-55
2022/12/05 02:18:52;;;;;;;;;;;;;;;;;;5106024;28;20285;-56
2022/12/05 02:21:17;;;;;;;;;;;;;;;;;;5075570;28;20266;-56
2022/12/05 02:23:42;;;;;;;;;;;;;;;;;;5074044;28;19916;-54
2022/12/05 02:26:07;;;;;;;;;;;;;;;;;;5073852;28;19924;-53
2022/12/05 02:28:32;;;;;;;;;;;;;;;;;;5074809;28;19920;-55
2022/12/05 02:30:57;;;;;;;;;;;;;;;;;;5079149;28;19919;-53
2022/12/05 02:33:23;;;;;;;;;;;;;;;;;;5074329;28;19955;-51
2022/12/05 02:35:48;;;;;;;;;;;;;;;;;;5071106;28;19916;-53
2022/12/05 02:38:13;;;;;;;;;;;;;;;;;;5105815;28;19912;-51
2022/12/05 02:40:38;;;;;;;;;;;;;;;;;;5070260;28;19912;-55
2022/12/05 02:43:03;;;;;;;;;;;;;;;;;;5072972;28;20325;-55
2022/12/05 02:45:28;;;;;;;;;;;;;;;;;;5072192;28;19919;-56
2022/12/05 02:47:53;;;;;;;;;;;;;;;;;;5072580;28;19916;-55
2022/12/05 02:50:19;;;;;;;;;;;;;;;;;;5071555;28;19913;-53
2022/12/05 02:52:44;;;;;;;;;;;;;;;;;;5069547;28;20611;-54
2022/12/05 02:55:09;;;;;;;;;;;;;;;;;;5072716;28;19920;-56
2022/12/05 02:57:34;;;;;;;;;;;;;;;;;;5073790;28;20427;-53
2022/12/05 02:59:59;;;;;;;;;;;;;;;;;;5071956;28;19920;-55
2022/12/05 03:02:25;;;;;;;;;;;;;;;;;;5072781;28;19932;-54
2022/12/05 03:04:50;;;;;;;;;;;;;;;;;;5069260;28;20006;-51
2022/12/05 03:07:16;;;;;;;;;;;;;;;;;;5072982;28;19955;-54
2022/12/05 03:09:41;;;;;;;;;;;;;;;;;;5075635;28;19912;-55
2022/12/05 03:12:06;;;;;;;;;;;;;;;;;;5068734;28;19936;-55
2022/12/05 03:14:31;;;;;;;;;;;;;;;;;;5071366;28;20361;-51
2022/12/05 03:16:56;;;;;;;;;;;;;;;;;;5072122;28;20003;-51
2022/12/05 03:19:21;;;;;;;;;;;;;;;;;;5073489;28;19931;-51
2022/12/05 03:21:46;;;;;;;;;;;;;;;;;;5072505;28;20395;-54
2022/12/05 03:24:12;;;;;;;;;;;;;;;;;;5071239;28;19928;-55
2022/12/05 03:26:37;;;;;;;;;;;;;;;;;;5072727;28;19923;-51
2022/12/05 03:29:02;;;;;;;;;;;;;;;;;;5069944;28;19927;-49
2022/12/05 03:31:27;;;;;;;;;;;;;;;;;;5069328;28;19985;-55
2022/12/05 03:33:52;;;;;;;;;;;;;;;;;;5102651;27;19920;-54
2022/12/05 03:36:17;;;;;;;;;;;;;;;;;;5071476;28;20448;-55
2022/12/05 03:38:43;;;;;;;;;;;;;;;;;;5068719;28;19999;-55
2022/12/05 03:41:08;;;;;;;;;;;;;;;;;;5072884;28;19915;-55
2022/12/05 03:43:33;;;;;;;;;;;;;;;;;;5071090;28;19913;-50
2022/12/05 03:45:58;;;;;;;;;;;;;;;;;;5070185;28;20284;-54
2022/12/05 03:48:24;;;;;;;;;;;;;;;;;;5071484;28;19919;-54
2022/12/05 03:50:49;;;;;;;;;;;;;;;;;;5072516;28;19993;-56
2022/12/05 03:53:14;;;;;;;;;;;;;;;;;;5072207;28;19962;-56
2022/12/05 03:55:39;;;;;;;;;;;;;;;;;;5071401;28;19916;-55
2022/12/05 03:58:04;;;;;;;;;;;;;;;;;;5072105;28;20328;-57
2022/12/05 04:00:29;;;;;;;;;;;;;;;;;;5072149;28;19979;-56
2022/12/05 04:02:54;;;;;;;;;;;;;;;;;;5072727;28;19958;-51
2022/12/05 04:05:20;;;;;;;;;;;;;;;;;;5059629;28;19916;-52
2022/12/05 04:07:45;;;;;;;;;;;;;;;;;;5066970;28;19916;-55
2022/12/05 04:10:10;;;;;;;;;;;;;;;;;;5072107;28;19912;-51
2022/12/05 04:12:35;;;;;;;;;;;;;;;;;;5069739;28;19912;-51
2022/12/05 04:15:00;;;;;;;;;;;;;;;;;;5071664;28;19913;-56
2022/12/05 04:17:25;;;;;;;;;;;;;;;;;;5072744;28;19921;-53
2022/12/05 04:22:34;;;;;;;;;;;;;;;;;;5072201;28;19962;-51
2022/12/05 04:27:43;;;;;;;;;;;;;;;;;;5072289;28;19923;-55
2022/12/05 04:30:09;;;;;;;;;;;;;;;;;;5068865;28;20007;-57
2022/12/05 04:32:34;;;;;;;;;;;;;;;;;;5070610;28;20368;-55
2022/12/05 04:34:59;;;;;;;;;;;;;;;;;;5067901;28;19913;-56
2022/12/05 04:37:25;;;;;;;;;;;;;;;;;;5071705;28;19965;-54
2022/12/05 04:39:50;;;;;;;;;;;;;;;;;;5071223;28;19919;-53
2022/12/05 04:42:15;;;;;;;;;;;;;;;;;;5071559;28;19916;-56
2022/12/05 04:44:40;;;;;;;;;;;;;;;;;;5069545;28;19920;-55
2022/12/05 04:47:06;;;;;;;;;;;;;;;;;;5069936;28;19943;-52
2022/12/05 04:49:31;;;;;;;;;;;;;;;;;;5075417;28;20289;-52
2022/12/05 04:51:56;;;;;;;;;;;;;;;;;;5071975;28;19909;-55
2022/12/05 04:54:21;;;;;;;;;;;;;;;;;;5070593;28;20419;-53
2022/12/05 04:56:46;;;;;;;;;;;;;;;;;;5080830;28;20012;-55
2022/12/05 04:59:11;;;;;;;;;;;;;;;;;;5070277;28;20288;-53
2022/12/05 05:01:36;;;;;;;;;;;;;;;;;;5079555;28;20010;-49
2022/12/05 05:04:02;;;;;;;;;;;;;;;;;;5087028;28;19909;-56
2022/12/05 05:06:27;;;;;;;;;;;;;;;;;;5075336;28;20319;-52
2022/12/05 05:08:52;;;;;;;;;;;;;;;;;;5083784;28;20267;-55
2022/12/05 05:11:17;;;;;;;;;;;;;;;;;;5075934;28;19912;-55
2022/12/05 05:13:42;;;;;;;;;;;;;;;;;;5074428;28;20297;-56
2022/12/05 05:16:09;;;;;;;;;;;;;;;;;;5074804;28;20771;-55
2022/12/05 05:18:34;;;;;;;;;;;;;;;;;;5074038;28;19912;-54
2022/12/05 05:20:59;;;;;;;;;;;;;;;;;;5074644;28;20384;-54
2022/12/05 05:23:24;;;;;;;;;;;;;;;;;;5073503;28;19921;-55
2022/12/05 05:25:49;;;;;;;;;;;;;;;;;;5073240;28;19920;-54
2022/12/05 05:28:14;;;;;;;;;;;;;;;;;;5074979;28;20032;-54
2022/12/05 05:30:39;;;;;;;;;;;;;;;;;;5066449;28;19916;-54
2022/12/05 05:33:04;;;;;;;;;;;;;;;;;;5081188;28;19916;-53
2022/12/05 05:35:30;;;;;;;;;;;;;;;;;;5063200;28;19913;-53
2022/12/05 05:37:55;;;;;;;;;;;;;;;;;;5064949;28;20012;-54
2022/12/05 05:40:20;;;;;;;;;;;;;;;;;;5064770;28;19913;-49
2022/12/05 05:42:45;;;;;;;;;;;;;;;;;;5064177;28;20280;-55
2022/12/05 05:45:10;;;;;;;;;;;;;;;;;;5084847;28;19912;-55
2022/12/05 05:47:35;;;;;;;;;;;;;;;;;;5070286;28;19923;-55
2022/12/05 05:50:00;;;;;;;;;;;;;;;;;;5069100;28;20012;-54
2022/12/05 05:52:26;;;;;;;;;;;;;;;;;;5071267;28;19916;-52
2022/12/05 05:54:51;;;;;;;;;;;;;;;;;;5072020;28;20289;-56
2022/12/05 05:57:16;;;;;;;;;;;;;;;;;;5080819;28;20360;-52
2022/12/05 05:59:41;;;;;;;;;;;;;;;;;;5065701;28;19996;-55
2022/12/05 06:02:06;;;;;;;;;;;;;;;;;;5055743;28;19917;-55
2022/12/05 06:04:31;;;;;;;;;;;;;;;;;;5073998;28;19919;-60
2022/12/05 06:06:56;;;;;;;;;;;;;;;;;;5062493;28;19986;-53
2022/12/05 06:09:21;;;;;;;;;;;;;;;;;;5055573;28;20105;-55
2022/12/05 06:11:47;;;;;;;;;;;;;;;;;;5062157;28;19913;-52
2022/12/05 06:14:12;;;;;;;;;;;;;;;;;;5060891;28;19912;-55
2022/12/05 06:16:37;;;;;;;;;;;;;;;;;;5072171;28;21172;-49
2022/12/05 06:19:02;;;;;;;;;;;;;;;;;;5061910;28;19909;-52
2022/12/05 06:21:27;;;;;;;;;;;;;;;;;;5059798;28;19912;-52
2022/12/05 06:23:52;;;;;;;;;;;;;;;;;;5079646;28;20368;-53
2022/12/05 06:26:17;;;;;;;;;;;;;;;;;;5083937;28;20382;-55
2022/12/05 06:28:43;;;;;;;;;;;;;;;;;;5074220;28;20015;-55
2022/12/05 06:31:08;;;;;;;;;;;;;;;;;;5073671;28;19954;-51
2022/12/05 06:33:33;;;;;;;;;;;;;;;;;;5073016;28;19912;-56
2022/12/05 06:35:58;;;;;;;;;;;;;;;;;;5054438;28;20391;-51
2022/12/05 06:38:24;;;;;;;;;;;;;;;;;;5065587;28;19920;-54
2022/12/05 06:40:49;;;;;;;;;;;;;;;;;;5070689;28;19912;-55
2022/12/05 06:43:14;;;;;;;;;;;;;;;;;;5067405;28;19912;-51
2022/12/05 06:45:39;;;;;;;;;;;;;;;;;;5065501;28;19909;-57
2022/12/05 06:48:04;;;;;;;;;;;;;;;;;;5069042;28;19913;-52
2022/12/05 06:50:29;;;;;;;;;;;;;;;;;;5072264;28;20382;-56
2022/12/05 06:52:54;;;;;;;;;;;;;;;;;;5073036;28;19920;-56
2022/12/05 06:55:19;;;;;;;;;;;;;;;;;;5072022;28;20001;-55
2022/12/05 06:57:45;;;;;;;;;;;;;;;;;;5072484;28;19916;-57
2022/12/05 07:02:53;;;;;;;;;;;;;;;;;;5073696;28;20406;-51
2022/12/05 07:05:19;;;;;;;;;;;;;;;;;;5070419;28;19912;-55
2022/12/05 07:07:44;;;;;;;;;;;;;;;;;;5069366;28;19920;-53
2022/12/05 07:10:09;;;;;;;;;;;;;;;;;;5071662;28;19923;-53
2022/12/05 07:12:34;;;;;;;;;;;;;;;;;;5066325;28;20293;-55
2022/12/05 07:14:59;;;;;;;;;;;;;;;;;;5075755;28;20376;-55
2022/12/05 07:17:24;;;;;;;;;;;;;;;;;;5076795;28;20258;-53
2022/12/05 07:19:50;;;;;;;;;;;;;;;;;;5082820;28;20319;-54
2022/12/05 07:22:15;;;;;;;;;;;;;;;;;;5078838;28;19932;-54
2022/12/05 07:24:40;;;;;;;;;;;;;;;;;;5071589;28;19927;-54
2022/12/05 07:27:06;;;;;;;;;;;;;;;;;;5070154;28;19920;-56
2022/12/05 07:29:31;;;;;;;;;;;;;;;;;;5070207;28;19919;-55
2022/12/05 07:31:56;;;;;;;;;;;;;;;;;;5061970;28;19908;-51
2022/12/05 07:34:21;;;;;;;;;;;;;;;;;;5078091;28;19956;-51
2022/12/05 07:36:46;;;;;;;;;;;;;;;;;;5070979;28;19913;-52
2022/12/05 07:39:11;;;;;;;;;;;;;;;;;;5068452;28;19913;-55
2022/12/05 07:41:37;;;;;;;;;;;;;;;;;;5070967;28;20508;-54
2022/12/05 07:44:02;;;;;;;;;;;;;;;;;;5061492;28;19963;-54
2022/12/05 07:46:27;;;;;;;;;;;;;;;;;;5070538;28;19916;-54
2022/12/05 07:48:52;;;;;;;;;;;;;;;;;;5071303;28;19930;-53
2022/12/05 07:51:17;;;;;;;;;;;;;;;;;;5069009;28;20288;-54
2022/12/05 07:53:43;;;;;;;;;;;;;;;;;;5072174;28;19908;-54
2022/12/05 07:56:08;;;;;;;;;;;;;;;;;;5072664;28;20401;-51
2022/12/05 07:58:33;;;;;;;;;;;;;;;;;;5084817;28;19916;-51
2022/12/05 08:00:58;;;;;;;;;;;;;;;;;;5067630;28;19909;-53
2022/12/05 08:03:23;;;;;;;;;;;;;;;;;;5072271;28;19908;-56
2022/12/05 08:05:48;;;;;;;;;;;;;;;;;;5072508;28;20334;-56
2022/12/05 08:08:14;;;;;;;;;;;;;;;;;;5070065;28;20396;-55
2022/12/05 08:10:39;;;;;;;;;;;;;;;;;;5059357;28;20401;-56
2022/12/05 08:13:04;;;;;;;;;;;;;;;;;;5081738;28;20369;-55
2022/12/05 08:15:29;;;;;;;;;;;;;;;;;;5059844;28;20384;-55
2022/12/05 08:17:54;;;;;;;;;;;;;;;;;;5068943;28;20280;-55
2022/12/05 08:20:19;;;;;;;;;;;;;;;;;;5071878;28;20383;-55
2022/12/05 08:22:45;;;;;;;;;;;;;;;;;;5070623;28;19927;-56
2022/12/05 08:25:10;;;;;;;;;;;;;;;;;;5069698;28;20277;-56
2022/12/05 08:27:35;;;;;;;;;;;;;;;;;;5072421;28;19916;-56
2022/12/05 08:30:00;;;;;;;;;;;;;;;;;;5069434;28;19916;-57
2022/12/05 08:32:26;;;;;;;;;;;;;;;;;;5072218;28;19918;-54
2022/12/05 08:34:51;;;;;;;;;;;;;;;;;;5068044;28;19988;-55
2022/12/05 08:37:16;;;;;;;;;;;;;;;;;;5106753;27;19996;-54
2022/12/05 08:39:41;;;;;;;;;;;;;;;;;;5076951;28;19916;-55
2022/12/05 08:42:06;;;;;;;;;;;;;;;;;;5091853;28;19908;-53
2022/12/05 08:44:31;;;;;;;;;;;;;;;;;;5068361;28;19912;-56
2022/12/05 08:46:57;;;;;;;;;;;;;;;;;;5071998;28;20019;-54
2022/12/05 08:49:22;;;;;;;;;;;;;;;;;;5070486;28;19908;-56
2022/12/05 08:51:47;;;;;;;;;;;;;;;;;;5065186;28;19959;-54
2022/12/05 08:54:12;;;;;;;;;;;;;;;;;;5074751;28;19998;-52
2022/12/05 08:56:37;;;;;;;;;;;;;;;;;;5074934;28;19916;-54
2022/12/05 08:59:02;;;;;;;;;;;;;;;;;;5075802;28;19959;-55
2022/12/05 09:01:31;;;;;;;;;;;;;;;;;;5072262;28;19940;-55
2022/12/05 09:03:57;;;;;;;;;;;;;;;;;;5075721;28;20369;-51
2022/12/05 09:06:22;;;;;;;;;;;;;;;;;;5071419;28;19927;-55
2022/12/05 09:08:47;;;;;;;;;;;;;;;;;;5055511;28;19909;-54
2022/12/05 09:11:12;;;;;;;;;;;;;;;;;;5058075;28;19917;-56
2022/12/05 09:13:37;;;;;;;;;;;;;;;;;;5058158;28;20381;-55
2022/12/05 09:16:02;;;;;;;;;;;;;;;;;;5070706;28;19970;-52
2022/12/05 09:18:27;;;;;;;;;;;;;;;;;;5074397;28;19912;-54
2022/12/05 09:20:53;;;;;;;;;;;;;;;;;;5074349;28;19919;-55
2022/12/05 09:23:18;;;;;;;;;;;;;;;;;;5081892;28;20343;-55
2022/12/05 09:25:43;;;;;;;;;;;;;;;;;;5059622;28;20431;-53
2022/12/05 09:28:08;;;;;;;;;;;;;;;;;;5105148;28;20369;-54
2022/12/05 09:30:33;;;;;;;;;;;;;;;;;;5074603;28;19908;-52
2022/12/05 09:32:58;;;;;;;;;;;;;;;;;;5074188;28;19912;-57
2022/12/05 09:35:24;;;;;;;;;;;;;;;;;;5057968;28;19959;-52
2022/12/05 09:37:49;;;;;;;;;;;;;;;;;;5065095;28;20388;-55
2022/12/05 09:40:14;;;;;;;;;;;;;;;;;;5064236;28;19916;-55
2022/12/05 09:42:39;;;;;;;;;;;;;;;;;;5065139;28;19924;-54
2022/12/05 09:45:04;;;;;;;;;;;;;;;;;;5066361;28;19924;-54
2022/12/05 09:47:30;;;;;;;;;;;;;;;;;;5073120;28;19968;-55
2022/12/05 09:49:55;;;;;;;;;;;;;;;;;;5074865;28;19947;-55
2022/12/05 09:52:20;;;;;;;;;;;;;;;;;;5071083;28;20040;-54
2022/12/05 09:54:45;;;;;;;;;;;;;;;;;;5107316;27;19916;-53
2022/12/05 09:57:11;;;;;;;;;;;;;;;;;;5058486;28;19917;-55
2022/12/05 09:59:36;;;;;;;;;;;;;;;;;;5073519;28;20407;-54
2022/12/05 10:02:01;;;;;;;;;;;;;;;;;;5074612;28;19912;-53
2022/12/05 10:04:26;;;;;;;;;;;;;;;;;;5072764;28;19912;-56
2022/12/05 10:06:51;;;;;;;;;;;;;;;;;;5074114;28;19999;-52
2022/12/05 10:09:16;;;;;;;;;;;;;;;;;;5073344;28;19919;-53
2022/12/05 10:11:42;;;;;;;;;;;;;;;;;;5073740;28;19966;-56
2022/12/05 10:14:07;;;;;;;;;;;;;;;;;;5086691;27;19963;-51
2022/12/05 10:16:32;;;;;;;;;;;;;;;;;;5053859;28;20376;-53
2022/12/05 10:18:57;;;;;;;;;;;;;;;;;;5061949;28;20377;-54
2022/12/05 10:21:22;;;;;;;;;;;;;;;;;;5068813;28;19913;-56
2022/12/05 10:23:47;;;;;;;;;;;;;;;;;;5066325;28;20010;-48
2022/12/05 10:26:12;;;;;;;;;;;;;;;;;;5067760;28;20288;-56
2022/12/05 10:28:38;;;;;;;;;;;;;;;;;;5073629;28;20010;-53
2022/12/05 10:31:04;;;;;;;;;;;;;;;;;;5062290;28;20015;-55
2022/12/05 10:33:29;;;;;;;;;;;;;;;;;;5065162;28;20356;-52
2022/12/05 10:35:54;;;;;;;;;;;;;;;;;;5074017;28;19913;-53
2022/12/05 10:38:19;;;;;;;;;;;;;;;;;;5073208;28;19909;-56
2022/12/05 10:40:44;;;;;;;;;;;;;;;;;;5105966;27;19958;-55
2022/12/05 10:43:09;;;;;;;;;;;;;;;;;;5065078;28;20034;-55
2022/12/05 10:45:34;;;;;;;;;;;;;;;;;;5072824;28;19908;-56
2022/12/05 10:48:00;;;;;;;;;;;;;;;;;;5073310;28;20382;-52
2022/12/05 10:50:25;;;;;;;;;;;;;;;;;;5071627;28;20428;-53
2022/12/05 10:52:50;;;;;;;;;;;;;;;;;;5070434;28;20402;-56
2022/12/05 10:55:15;;;;;;;;;;;;;;;;;;5073167;28;19913;-53
2022/12/05 10:57:41;;;;;;;;;;;;;;;;;;5072853;28;19962;-54
2022/12/05 11:00:06;;;;;;;;;;;;;;;;;;5072073;28;19913;-52
2022/12/05 11:02:31;;;;;;;;;;;;;;;;;;5073291;28;20012;-55
2022/12/05 11:04:57;;;;;;;;;;;;;;;;;;5073461;28;20522;-53
2022/12/05 11:07:22;;;;;;;;;;;;;;;;;;5072699;28;20331;-55
2022/12/05 11:09:47;;;;;;;;;;;;;;;;;;5072133;28;20003;-51
2022/12/05 11:12:12;;;;;;;;;;;;;;;;;;5068510;28;20341;-54
2022/12/05 11:14:37;;;;;;;;;;;;;;;;;;5061884;28;19913;-55
2022/12/05 11:17:02;;;;;;;;;;;;;;;;;;5067755;28;19909;-53
2022/12/05 11:19:28;;;;;;;;;;;;;;;;;;5071698;28;20368;-54
2022/12/05 11:21:53;;;;;;;;;;;;;;;;;;5064739;28;19912;-52
2022/12/05 11:24:18;;;;;;;;;;;;;;;;;;5069990;28;19921;-55
2022/12/05 11:26:44;;;;;;;;;;;;;;;;;;5074772;28;20376;-52
2022/12/05 11:29:09;;;;;;;;;;;;;;;;;;5105574;28;19919;-53
2022/12/05 11:31:34;;;;;;;;;;;;;;;;;;5069575;28;19909;-55
2022/12/05 11:33:59;;;;;;;;;;;;;;;;;;5072242;28;19916;-53
2022/12/05 11:36:25;;;;;;;;;;;;;;;;;;5073834;28;19912;-49
2022/12/05 11:38:50;;;;;;;;;;;;;;;;;;5087405;28;19978;-55
2022/12/05 11:41:15;;;;;;;;;;;;;;;;;;5072713;28;19938;-51
2022/12/05 11:43:40;;;;;;;;;;;;;;;;;;5055718;28;19921;-49
2022/12/05 11:46:05;;;;;;;;;;;;;;;;;;5066826;28;19962;-52
2022/12/05 11:48:30;;;;;;;;;;;;;;;;;;5055983;28;19963;-52
2022/12/05 11:50:55;;;;;;;;;;;;;;;;;;5053233;28;19909;-53
2022/12/05 11:53:21;;;;;;;;;;;;;;;;;;5071999;28;19925;-51
2022/12/05 11:55:46;;;;;;;;;;;;;;;;;;5072033;28;19964;-51
2022/12/05 11:58:11;;;;;;;;;;;;;;;;;;5059013;28;19963;-53
2022/12/05 12:00:36;;;;;;;;;;;;;;;;;;5084500;28;20412;-51
2022/12/05 12:03:01;;;;;;;;;;;;;;;;;;5052350;28;20381;-53
2022/12/05 12:05:26;;;;;;;;;;;;;;;;;;5052303;28;20353;-53
2022/12/05 12:07:51;;;;;;;;;;;;;;;;;;5057754;28;19923;-49
2022/12/05 12:10:17;;;;;;;;;;;;;;;;;;5069613;28;19912;-54
2022/12/05 12:12:42;;;;;;;;;;;;;;;;;;5060045;28;20023;-51
2022/12/05 12:15:07;;;;;;;;;;;;;;;;;;5069726;28;19927;-49
2022/12/05 12:17:32;;;;;;;;;;;;;;;;;;5069421;28;19987;-54
2022/12/05 12:19:57;;;;;;;;;;;;;;;;;;5070461;28;19916;-52
2022/12/05 12:22:23;;;;;;;;;;;;;;;;;;5069907;28;20337;-54
2022/12/05 12:24:48;;;;;;;;;;;;;;;;;;5069089;28;20335;-53
2022/12/05 12:27:15;;;;;;;;;;;;;;;;;;5070621;28;19916;-49
2022/12/05 12:29:40;;;;;;;;;;;;;;;;;;5069335;28;19913;-55
2022/12/05 12:32:05;;;;;;;;;;;;;;;;;;5088281;28;19921;-52
2022/12/05 12:34:31;;;;;;;;;;;;;;;;;;5068996;28;20258;-54
2022/12/05 12:36:56;;;;;;;;;;;;;;;;;;5067623;28;20438;-54
2022/12/05 12:39:21;;;;;;;;;;;;;;;;;;5072084;28;19912;-56
2022/12/05 12:41:46;;;;;;;;;;;;;;;;;;5086980;28;19909;-55
2022/12/05 12:44:11;;;;;;;;;;;;;;;;;;5058681;28;19995;-52
2022/12/05 12:46:36;;;;;;;;;;;;;;;;;;5067429;28;19917;-53
2022/12/05 12:49:02;;;;;;;;;;;;;;;;;;5070013;28;19920;-51
2022/12/05 12:51:27;;;;;;;;;;;;;;;;;;5069970;28;20033;-55
2022/12/05 12:53:52;;;;;;;;;;;;;;;;;;5069019;28;20027;-53
2022/12/05 12:56:18;;;;;;;;;;;;;;;;;;5068062;28;19908;-53
2022/12/05 12:58:44;;;;;;;;;;;;;;;;;;5071415;28;20384;-50
2022/12/05 13:01:09;;;;;;;;;;;;;;;;;;5077013;28;20006;-52
2022/12/05 13:03:35;;;;;;;;;;;;;;;;;;5068693;28;20011;-55
2022/12/05 13:06:00;;;;;;;;;;;;;;;;;;5065650;28;19912;-53
2022/12/05 13:08:25;;;;;;;;;;;;;;;;;;5070663;28;19927;-54
2022/12/05 13:10:50;;;;;;;;;;;;;;;;;;5067276;28;19950;-53
2022/12/05 13:13:15;;;;;;;;;;;;;;;;;;5060654;28;20015;-53
2022/12/05 13:15:43;;;;;;;;;;;;;;;;;;5065349;28;19909;-52
2022/12/05 13:18:08;;;;;;;;;;;;;;;;;;5067112;28;19909;-54
2022/12/05 13:20:33;;;;;;;;;;;;;;;;;;5072510;28;19909;-50
2022/12/05 13:22:59;;;;;;;;;;;;;;;;;;5071265;28;19919;-60
2022/12/05 13:25:24;;;;;;;;;;;;;;;;;;5066111;28;19932;-60
2022/12/05 13:27:49;;;;;;;;;;;;;;;;;;5100089;28;20196;-58
2022/12/05 13:30:14;;;;;;;;;;;;;;;;;;5070209;28;19955;-61
2022/12/05 13:32:39;;;;;;;;;;;;;;;;;;5065924;28;20395;-55
2022/12/05 13:35:05;;;;;;;;;;;;;;;;;;5074540;28;20365;-63
2022/12/05 13:42:58;;;;;;;;;;;;;;;;;;5064103;28;20477;-66
2022/12/05 13:45:23;;;;;;;;;;;;;;;;;;5102102;28;19908;-65
2022/12/05 13:47:48;;;;;;;;;;;;;;;;;;5069779;28;19954;-63
2022/12/05 13:50:13;;;;;;;;;;;;;;;;;;5072237;28;19921;-65
2022/12/05 13:52:39;;;;;;;;;;;;;;;;;;5072276;28;19936;-64
2022/12/05 13:55:05;;;;;;;;;;;;;;;;;;5072301;28;19934;-65
2022/12/05 13:57:30;;;;;;;;;;;;;;;;;;5071558;28;19913;-64
2022/12/05 13:59:55;;;;;;;;;;;;;;;;;;5068894;28;20396;-64
2022/12/05 14:02:20;;;;;;;;;;;;;;;;;;5073693;28;19909;-65
2022/12/05 14:04:47;;;;;;;;;;;;;;;;;;5072939;28;19934;-67
2022/12/05 14:07:12;;;;;;;;;;;;;;;;;;5071325;28;19920;-65
2022/12/05 14:09:37;;;;;;;;;;;;;;;;;;5070763;28;19920;-67
2022/12/05 14:12:02;;;;;;;;;;;;;;;;;;5069576;28;19995;-65
2022/12/05 14:14:27;;;;;;;;;;;;;;;;;;5100164;28;20431;-71
2022/12/05 14:16:52;;;;;;;;;;;;;;;;;;5103996;28;19916;-67
2022/12/05 14:19:18;;;;;;;;;;;;;;;;;;5069650;28;19917;-66
2022/12/05 14:21:43;;;;;;;;;;;;;;;;;;5105800;28;19908;-70
2022/12/05 14:24:08;;;;;;;;;;;;;;;;;;5073051;28;19913;-69
2022/12/05 14:26:33;;;;;;;;;;;;;;;;;;5073794;28;19912;-67
2022/12/05 14:28:59;;;;;;;;;;;;;;;;;;5069120;28;19986;-65
2022/12/05 14:31:24;;;;;;;;;;;;;;;;;;5072651;28;19948;-67
2022/12/05 14:33:49;;;;;;;;;;;;;;;;;;5073871;28;19943;-62
2022/12/05 14:36:14;;;;;;;;;;;;;;;;;;5068796;28;19946;-63
2022/12/05 14:38:39;;;;;;;;;;;;;;;;;;5071170;28;19916;-61
2022/12/05 14:41:05;;;;;;;;;;;;;;;;;;5070002;28;19916;-61
2022/12/05 14:43:30;;;;;;;;;;;;;;;;;;5103501;27;19920;-61
2022/12/05 14:45:55;;;;;;;;;;;;;;;;;;5087179;28;19916;-62
2022/12/05 14:48:20;;;;;;;;;;;;;;;;;;5095499;28;19923;-61
2022/12/05 14:50:45;;;;;;;;;;;;;;;;;;5081031;28;19912;-64
2022/12/05 14:53:10;;;;;;;;;;;;;;;;;;5055064;28;20395;-61
2022/12/05 14:55:35;;;;;;;;;;;;;;;;;;5065876;28;19924;-61
2022/12/05 14:58:01;;;;;;;;;;;;;;;;;;5056603;28;19935;-61
2022/12/05 15:00:26;;;;;;;;;;;;;;;;;;5079557;28;19916;-61
2022/12/05 15:02:51;;;;;;;;;;;;;;;;;;5077955;28;19916;-61
2022/12/05 15:05:16;;;;;;;;;;;;;;;;;;5101072;27;19919;-61
2022/12/05 15:07:42;;;;;;;;;;;;;;;;;;5075054;28;19921;-59
2022/12/05 15:10:08;;;;;;;;;;;;;;;;;;5064828;28;19944;-61
2022/12/05 15:12:33;;;;;;;;;;;;;;;;;;5099506;28;19967;-61
2022/12/05 15:14:58;;;;;;;;;;;;;;;;;;5082721;28;19912;-62
2022/12/05 15:17:23;;;;;;;;;;;;;;;;;;5087570;28;19916;-61
2022/12/05 15:19:48;;;;;;;;;;;;;;;;;;5100486;27;19909;-61
2022/12/05 15:22:14;;;;;;;;;;;;;;;;;;5071012;28;20284;-61
2022/12/05 15:24:39;;;;;;;;;;;;;;;;;;5060686;28;20342;-61
2022/12/05 15:27:04;;;;;;;;;;;;;;;;;;5067531;28;20364;-61
2022/12/05 15:29:31;;;;;;;;;;;;;;;;;;5078291;28;20293;-61
2022/12/05 15:31:58;;;;;;;;;;;;;;;;;;5077894;28;20197;-61
2022/12/05 15:34:24;;;;;;;;;;;;;;;;;;5058987;28;20346;-61
2022/12/05 15:36:49;;;;;;;;;;;;;;;;;;5064738;28;20250;-61
2022/12/05 15:39:14;;;;;;;;;;;;;;;;;;5063655;28;19921;-64
2022/12/05 15:41:40;;;;;;;;;;;;;;;;;;5102057;27;20369;-62
2022/12/05 15:44:05;;;;;;;;;;;;;;;;;;5069156;28;19959;-61
2022/12/05 15:46:30;;;;;;;;;;;;;;;;;;5066654;28;19936;-61
2022/12/05 15:48:55;;;;;;;;;;;;;;;;;;5066697;28;19932;-61
2022/12/05 15:51:21;;;;;;;;;;;;;;;;;;5086160;28;19918;-66
2022/12/05 15:53:46;;;;;;;;;;;;;;;;;;5060912;28;19922;-61
2022/12/05 15:56:11;;;;;;;;;;;;;;;;;;5065503;28;20357;-62
2022/12/05 15:58:36;;;;;;;;;;;;;;;;;;5070066;28;19916;-62
2022/12/05 16:01:01;;;;;;;;;;;;;;;;;;5081112;28;19912;-61
2022/12/05 16:03:26;;;;;;;;;;;;;;;;;;5089975;28;19918;-61
2022/12/05 16:05:52;;;;;;;;;;;;;;;;;;5071591;28;19917;-64
2022/12/05 16:08:17;;;;;;;;;;;;;;;;;;5070321;28;19916;-64
2022/12/05 16:10:42;;;;;;;;;;;;;;;;;;5085177;28;19916;-64
2022/12/05 16:13:07;;;;;;;;;;;;;;;;;;5064517;28;20306;-64
2022/12/05 16:15:32;;;;;;;;;;;;;;;;;;5066672;28;19977;-66
2022/12/05 16:17:57;;;;;;;;;;;;;;;;;;5076656;28;19908;-61
2022/12/05 16:20:23;;;;;;;;;;;;;;;;;;5067382;28;19971;-63
2022/12/05 16:22:48;;;;;;;;;;;;;;;;;;5067924;28;19916;-62
2022/12/05 16:25:14;;;;;;;;;;;;;;;;;;5062080;28;19925;-63
2022/12/05 16:27:39;;;;;;;;;;;;;;;;;;5074343;28;19916;-63
2022/12/05 16:30:04;;;;;;;;;;;;;;;;;;5066299;28;19919;-63
2022/12/05 16:32:30;;;;;;;;;;;;;;;;;;5047106;28;19916;-63
2022/12/05 16:34:55;;;;;;;;;;;;;;;;;;5045554;28;20018;-62
2022/12/05 16:37:20;;;;;;;;;;;;;;;;;;5049637;28;19917;-62
2022/12/05 16:39:45;;;;;;;;;;;;;;;;;;5066205;28;19916;-62
2022/12/05 16:42:12;;;;;;;;;;;;;;;;;;5066426;28;19913;-63
2022/12/05 16:44:37;;;;;;;;;;;;;;;;;;5077280;28;20406;-63